Grand Lake, Minnesota
Current Conditions -  °F | °C
As of 8:55 PM on Wednesday 26 Nov 2014 (Local Time) from KDLH Reporting Station
Clear Clear  
Wind Chill: -12°   Ceiling: Unl
Heat Index:   Visibility: 10mi
Dew Point: -5°   Wind: 9mph
Humidity: 69%   Direction: 330°NNW
Pressure: 30.29"   Gusts: NA
Location:  46.8859°N, 92.4258°W
Report Text: KDLH 270255Z 33008KT 10SM CLR M16/M21 A3029 RMK AO2 SLP294 T11611206 51012
Loading
Personal Weather Stations






























Interactive Weather Map New forecast layout! Learn more

10-Day Weather Forecast

Advertisements
Track Severe Weather on mobile